Time;durP1;ratioP1;P1;durP2;ratioP2;P2;SDS_P1;SDS_P2;PMS_P1;PMS_P2;Temp;Humidity;BMP_temperature;BMP_pressure;BME280_temperature;BME280_humidity;BME280_pressure;Samples;Min_cycle;Max_cycle;Signal;HPM_P1;HPM_P2
2022/04/22 00:01:11;;;;;;;10.65;7.32;;;;;;;;;;4964888;28;20220;-60
2022/04/22 00:03:37;;;;;;;14.27;7.15;;;;;;;;;;4964133;28;20265;-59
2022/04/22 00:06:02;;;;;;;12.30;7.45;;;;;;;;;;4962926;28;20677;-60
2022/04/22 00:08:27;;;;;;;11.02;7.15;;;;;;;;;;4963902;28;20222;-59
2022/04/22 00:13:36;;;;;;;9.18;7.25;;;;;;;;;;4973767;28;20223;-59
2022/04/22 00:16:03;;;;;;;11.65;7.50;;;;;;;;;;4975245;28;20225;-60
2022/04/22 00:18:28;;;;;;;10.82;7.10;;;;;;;;;;4996203;28;20241;-59
2022/04/22 00:20:53;;;;;;;11.43;7.93;;;;;;;;;;4982406;28;20240;-59
2022/04/22 00:23:19;;;;;;;12.32;7.47;;;;;;;;;;4982513;28;20217;-60
2022/04/22 00:25:44;;;;;;;10.45;7.50;;;;;;;;;;4983089;28;20654;-59
2022/04/22 00:28:09;;;;;;;10.02;7.32;;;;;;;;;;4981270;28;20255;-60
2022/04/22 00:30:35;;;;;;;13.05;7.78;;;;;;;;;;4982931;28;20217;-59
2022/04/22 00:33:00;;;;;;;12.65;7.30;;;;;;;;;;4979109;28;20224;-59
2022/04/22 00:35:25;;;;;;;10.70;7.63;;;;;;;;;;4973687;28;20198;-60
2022/04/22 00:37:51;;;;;;;12.65;7.50;;;;;;;;;;4974744;28;20224;-59
2022/04/22 00:40:16;;;;;;;10.80;7.55;;;;;;;;;;4977961;28;20304;-60
2022/04/22 00:42:41;;;;;;;10.73;7.20;;;;;;;;;;4977951;28;20265;-60
2022/04/22 00:45:07;;;;;;;12.85;7.75;;;;;;;;;;4963021;28;20233;-59
2022/04/22 00:47:33;;;;;;;11.00;7.05;;;;;;;;;;4963799;28;20218;-59
2022/04/22 00:49:58;;;;;;;12.70;6.95;;;;;;;;;;4963256;28;20298;-59
2022/04/22 00:52:23;;;;;;;11.25;7.25;;;;;;;;;;4965716;28;20221;-59
2022/04/22 00:54:49;;;;;;;11.07;6.80;;;;;;;;;;4966395;28;20213;-60
2022/04/22 00:57:15;;;;;;;11.98;7.10;;;;;;;;;;4967609;28;20659;-59
2022/04/22 00:59:40;;;;;;;11.38;7.00;;;;;;;;;;4959007;28;20216;-60
2022/04/22 01:02:05;;;;;;;11.15;6.60;;;;;;;;;;4958680;28;20202;-60
2022/04/22 01:09:58;;;;;;;12.57;7.45;;;;;;;;;;4985250;28;20216;-59
2022/04/22 01:12:23;;;;;;;11.13;6.85;;;;;;;;;;4985174;28;20225;-59
2022/04/22 01:14:49;;;;;;;12.43;7.47;;;;;;;;;;5000348;28;20881;-59
2022/04/22 01:17:14;;;;;;;10.82;6.35;;;;;;;;;;4984606;28;20220;-59
2022/04/22 01:19:39;;;;;;;10.93;6.93;;;;;;;;;;4977773;28;20240;-59
2022/04/22 01:22:05;;;;;;;11.38;6.47;;;;;;;;;;4992166;28;20715;-60
2022/04/22 01:24:31;;;;;;;11.88;6.93;;;;;;;;;;4977694;28;20209;-59
2022/04/22 01:26:56;;;;;;;12.02;6.93;;;;;;;;;;4984303;28;20213;-59
2022/04/22 01:29:21;;;;;;;9.48;6.55;;;;;;;;;;4999598;28;20775;-59
2022/04/22 01:31:47;;;;;;;10.48;6.82;;;;;;;;;;4984565;28;20240;-59
2022/04/22 01:34:12;;;;;;;11.60;6.80;;;;;;;;;;4985393;28;20209;-59
2022/04/22 01:36:37;;;;;;;11.45;7.40;;;;;;;;;;4985163;28;20225;-59
2022/04/22 01:39:03;;;;;;;10.48;6.85;;;;;;;;;;4984295;28;20292;-60
2022/04/22 01:41:29;;;;;;;13.85;7.13;;;;;;;;;;4980116;28;20235;-59
2022/04/22 01:43:54;;;;;;;10.48;7.28;;;;;;;;;;4959851;28;20210;-59
2022/04/22 01:46:20;;;;;;;11.75;7.25;;;;;;;;;;4976078;28;20220;-59
2022/04/22 01:48:45;;;;;;;12.00;6.57;;;;;;;;;;4981709;28;20221;-59
2022/04/22 01:51:11;;;;;;;13.02;7.28;;;;;;;;;;4984716;28;20271;-59
2022/04/22 01:53:36;;;;;;;11.23;6.90;;;;;;;;;;4984039;28;20279;-59
2022/04/22 01:56:02;;;;;;;10.50;6.93;;;;;;;;;;4980641;28;20241;-60
2022/04/22 01:58:27;;;;;;;12.68;7.15;;;;;;;;;;4964992;28;20217;-59
2022/04/22 02:00:52;;;;;;;10.15;7.38;;;;;;;;;;4965842;28;20206;-59
2022/04/22 02:03:17;;;;;;;11.18;7.00;;;;;;;;;;4961977;28;20275;-59
2022/04/22 02:05:43;;;;;;;12.93;7.60;;;;;;;;;;4957580;28;20214;-59
2022/04/22 02:08:09;;;;;;;10.52;7.78;;;;;;;;;;4956942;28;20206;-59
2022/04/22 02:10:34;;;;;;;11.63;7.45;;;;;;;;;;4959369;28;20215;-59
2022/04/22 02:13:00;;;;;;;10.30;7.32;;;;;;;;;;4983678;28;20256;-59
2022/04/22 02:15:26;;;;;;;15.98;7.25;;;;;;;;;;4984226;28;20687;-59
2022/04/22 02:17:52;;;;;;;11.73;7.10;;;;;;;;;;4984862;28;20275;-59
2022/04/22 02:20:17;;;;;;;11.60;7.43;;;;;;;;;;4983093;28;20213;-59
2022/04/22 02:22:42;;;;;;;11.85;6.90;;;;;;;;;;4984585;28;20257;-59
2022/04/22 02:25:08;;;;;;;12.98;7.45;;;;;;;;;;4983866;28;20711;-59
2022/04/22 02:30:18;;;;;;;9.43;7.20;;;;;;;;;;4988192;28;20258;-59
2022/04/22 02:32:44;;;;;;;10.88;6.93;;;;;;;;;;4977479;28;20684;-59
2022/04/22 02:35:09;;;;;;;12.70;7.13;;;;;;;;;;4981981;28;20308;-59
2022/04/22 02:37:34;;;;;;;11.15;7.40;;;;;;;;;;4984225;28;20212;-59
2022/04/22 02:39:59;;;;;;;11.68;7.55;;;;;;;;;;4984152;28;20256;-59
2022/04/22 02:45:27;;;;;;;11.95;7.50;;;;;;;;;;4964352;28;20711;-59
2022/04/22 02:47:52;;;;;;;14.40;6.90;;;;;;;;;;4978803;28;20626;-59
2022/04/22 02:50:17;;;;;;;13.30;7.35;;;;;;;;;;4957209;28;20225;-59
2022/04/22 02:52:43;;;;;;;11.80;8.07;;;;;;;;;;4957114;28;20351;-59
2022/04/22 02:55:08;;;;;;;13.35;8.00;;;;;;;;;;4955938;28;20309;-60
2022/04/22 02:57:33;;;;;;;11.60;7.85;;;;;;;;;;4963742;28;20289;-59
2022/04/22 02:59:59;;;;;;;13.65;8.45;;;;;;;;;;4979248;28;20210;-59
2022/04/22 03:02:24;;;;;;;12.57;8.38;;;;;;;;;;4963546;28;20684;-59
2022/04/22 03:04:49;;;;;;;13.57;8.00;;;;;;;;;;4964432;28;20256;-59
2022/04/22 03:07:15;;;;;;;13.65;8.82;;;;;;;;;;4964290;28;20229;-59
2022/04/22 03:09:40;;;;;;;14.02;8.05;;;;;;;;;;4963917;28;20228;-59
2022/04/22 03:12:06;;;;;;;12.50;8.75;;;;;;;;;;4960178;28;20222;-59
2022/04/22 03:14:32;;;;;;;12.52;8.80;;;;;;;;;;4956237;28;20810;-59
2022/04/22 03:16:57;;;;;;;14.02;8.80;;;;;;;;;;4955378;28;20716;-59
2022/04/22 03:19:23;;;;;;;15.25;9.55;;;;;;;;;;4960154;28;20293;-59
2022/04/22 03:21:48;;;;;;;13.40;9.23;;;;;;;;;;4964698;28;20209;-59
2022/04/22 03:24:14;;;;;;;14.50;9.15;;;;;;;;;;4962995;28;20217;-59
2022/04/22 03:26:39;;;;;;;13.65;9.07;;;;;;;;;;4964312;28;20228;-59
2022/04/22 03:29:04;;;;;;;15.05;10.38;;;;;;;;;;4963870;28;20241;-59
2022/04/22 03:31:29;;;;;;;15.20;10.43;;;;;;;;;;4981994;28;20225;-59
2022/04/22 03:33:55;;;;;;;13.57;9.82;;;;;;;;;;4981196;28;20228;-59
2022/04/22 03:36:20;;;;;;;14.95;9.48;;;;;;;;;;4975401;28;20248;-59
2022/04/22 03:38:45;;;;;;;13.73;9.75;;;;;;;;;;4974577;28;20628;-59
2022/04/22 03:41:11;;;;;;;16.00;10.30;;;;;;;;;;4975984;28;20305;-59
2022/04/22 03:43:36;;;;;;;16.23;10.25;;;;;;;;;;4978549;28;20754;-59
2022/04/22 03:46:01;;;;;;;15.82;10.70;;;;;;;;;;4963299;28;20697;-60
2022/04/22 03:48:27;;;;;;;16.65;10.82;;;;;;;;;;4963686;28;20218;-59
2022/04/22 03:50:52;;;;;;;17.65;10.75;;;;;;;;;;4980719;28;20217;-59
2022/04/22 03:53:17;;;;;;;15.13;10.77;;;;;;;;;;4982385;28;20319;-59
2022/04/22 03:55:43;;;;;;;17.05;10.77;;;;;;;;;;4981943;28;20240;-59
2022/04/22 03:58:15;;;;;;;14.35;10.73;;;;;;;;;;4956588;28;20231;-59
2022/04/22 04:00:40;;;;;;;16.27;10.32;;;;;;;;;;4971438;28;20243;-59
2022/04/22 04:03:06;;;;;;;15.65;11.02;;;;;;;;;;4955500;28;20242;-59
2022/04/22 04:05:33;;;;;;;15.70;10.68;;;;;;;;;;4961677;28;20292;-59
2022/04/22 04:07:58;;;;;;;14.65;10.73;;;;;;;;;;4982691;28;20256;-59
2022/04/22 04:15:58;;;;;;;18.63;11.73;;;;;;;;;;4983073;28;20212;-59
2022/04/22 04:18:24;;;;;;;15.85;11.27;;;;;;;;;;4982419;28;20308;-59
2022/04/22 04:23:33;;;;;;;15.95;10.75;;;;;;;;;;4974670;28;20293;-59
2022/04/22 04:25:59;;;;;;;13.80;10.82;;;;;;;;;;4975042;28;20220;-59
2022/04/22 04:28:27;;;;;;;15.02;11.73;;;;;;;;;;4984900;28;20694;-59
2022/04/22 04:30:52;;;;;;;17.27;12.00;;;;;;;;;;4967422;28;20213;-59
2022/04/22 04:33:17;;;;;;;16.30;11.88;;;;;;;;;;4965855;28;20245;-59
2022/04/22 04:35:46;;;;;;;14.23;11.43;;;;;;;;;;4967516;28;20645;-59
2022/04/22 04:38:11;;;;;;;17.27;12.10;;;;;;;;;;4985795;28;20213;-59
2022/04/22 04:40:37;;;;;;;15.20;11.68;;;;;;;;;;4985457;28;20559;-59
2022/04/22 04:43:02;;;;;;;14.35;11.43;;;;;;;;;;4970677;28;20210;-59
2022/04/22 04:45:28;;;;;;;15.98;11.80;;;;;;;;;;4958885;28;20695;-59
2022/04/22 04:47:53;;;;;;;16.17;11.80;;;;;;;;;;4958649;28;20274;-59
2022/04/22 04:50:18;;;;;;;18.63;12.50;;;;;;;;;;4962686;28;20297;-59
2022/04/22 04:52:44;;;;;;;16.95;12.55;;;;;;;;;;4967581;28;20734;-59
2022/04/22 04:55:10;;;;;;;16.40;11.80;;;;;;;;;;4965636;28;20218;-59
2022/04/22 04:57:36;;;;;;;18.92;11.70;;;;;;;;;;4969520;28;20224;-59
2022/04/22 05:00:02;;;;;;;13.93;11.05;;;;;;;;;;4966827;28;20209;-59
2022/04/22 05:02:28;;;;;;;15.98;12.30;;;;;;;;;;4967223;28;20222;-59
2022/04/22 05:04:53;;;;;;;14.98;10.90;;;;;;;;;;4963986;28;20260;-59
2022/04/22 05:07:18;;;;;;;14.20;10.80;;;;;;;;;;4958253;28;20249;-59
2022/04/22 05:09:43;;;;;;;16.05;11.27;;;;;;;;;;4958076;28;20209;-59
2022/04/22 05:12:10;;;;;;;13.77;11.57;;;;;;;;;;4959846;28;20587;-59
2022/04/22 05:14:35;;;;;;;14.75;11.48;;;;;;;;;;4966789;28;20213;-59
2022/04/22 05:17:01;;;;;;;10.93;9.60;;;;;;;;;;4965675;28;20652;-60
2022/04/22 05:19:26;;;;;;;14.43;10.85;;;;;;;;;;4966072;28;20217;-59
2022/04/22 05:21:52;;;;;;;12.85;10.30;;;;;;;;;;4966713;28;21162;-59
2022/04/22 05:24:17;;;;;;;13.43;10.80;;;;;;;;;;4967225;28;20269;-59
2022/04/22 05:26:42;;;;;;;13.68;10.73;;;;;;;;;;4985631;28;20220;-62
2022/04/22 05:32:36;;;;;;;13.05;10.07;;;;;;;;;;4994739;28;20209;-63
2022/04/22 05:34:37;;;;;;;15.70;10.65;;;;;;;;;;4994580;28;20268;-59
2022/04/22 05:37:02;;;;;;;14.00;12.47;;;;;;;;;;4993306;28;20429;-59
2022/04/22 05:39:28;;;;;;;13.60;10.35;;;;;;;;;;4995101;28;20205;-60
2022/04/22 05:41:53;;;;;;;14.55;10.75;;;;;;;;;;4995221;28;20220;-63
2022/04/22 05:44:18;;;;;;;13.77;10.55;;;;;;;;;;4997410;28;20213;-60
2022/04/22 05:46:43;;;;;;;12.27;9.98;;;;;;;;;;4994216;28;20301;-60
2022/04/22 05:49:09;;;;;;;14.63;10.50;;;;;;;;;;4994445;28;20206;-60
2022/04/22 05:51:34;;;;;;;14.65;10.38;;;;;;;;;;4994073;28;20296;-60
2022/04/22 05:53:59;;;;;;;14.18;10.85;;;;;;;;;;4995012;28;20216;-60
2022/04/22 05:56:24;;;;;;;12.57;9.35;;;;;;;;;;4993935;28;20331;-61
2022/04/22 05:58:50;;;;;;;13.20;10.15;;;;;;;;;;4994023;28;20217;-60
2022/04/22 06:01:15;;;;;;;13.05;10.52;;;;;;;;;;4994281;28;20205;-60
2022/04/22 06:03:40;;;;;;;13.27;10.30;;;;;;;;;;4994954;28;20296;-60
2022/04/22 06:06:06;;;;;;;14.52;10.40;;;;;;;;;;4993299;28;20251;-59
2022/04/22 06:11:15;;;;;;;15.63;11.48;;;;;;;;;;4988003;28;20216;-60
2022/04/22 06:13:41;;;;;;;15.48;11.35;;;;;;;;;;4991349;28;20217;-59
2022/04/22 06:16:06;;;;;;;13.43;10.02;;;;;;;;;;5012317;28;20224;-59
2022/04/22 06:18:31;;;;;;;15.20;11.63;;;;;;;;;;5013660;28;20702;-59
2022/04/22 06:20:57;;;;;;;17.27;11.65;;;;;;;;;;5012207;28;20216;-59
2022/04/22 06:23:22;;;;;;;17.65;12.60;;;;;;;;;;5013397;28;20303;-59
2022/04/22 06:25:48;;;;;;;17.02;12.70;;;;;;;;;;4996707;28;20270;-59
2022/04/22 06:28:13;;;;;;;15.27;11.43;;;;;;;;;;4993231;28;20565;-59
2022/04/22 06:30:40;;;;;;;16.98;11.85;;;;;;;;;;4993864;28;20213;-59
2022/04/22 06:33:06;;;;;;;16.88;12.73;;;;;;;;;;4992625;28;20232;-59
2022/04/22 06:35:32;;;;;;;16.80;12.02;;;;;;;;;;4993737;28;20213;-59
2022/04/22 06:37:57;;;;;;;17.10;12.25;;;;;;;;;;4993892;28;20211;-59
2022/04/22 06:45:50;;;;;;;22.30;12.93;;;;;;;;;;4993759;28;20220;-58
2022/04/22 06:48:17;;;;;;;21.05;14.40;;;;;;;;;;4992731;28;20221;-58
2022/04/22 06:50:43;;;;;;;24.95;15.48;;;;;;;;;;4993160;28;20209;-59
2022/04/22 06:53:10;;;;;;;25.00;16.27;;;;;;;;;;4993059;28;20315;-59
2022/04/22 06:55:35;;;;;;;24.58;14.90;;;;;;;;;;4992610;28;20704;-59
2022/04/22 06:58:01;;;;;;;21.83;14.63;;;;;;;;;;4992155;28;20217;-60
2022/04/22 07:00:26;;;;;;;22.50;15.02;;;;;;;;;;4993128;28;20212;-60
2022/04/22 07:02:52;;;;;;;18.90;12.77;;;;;;;;;;4992900;28;20385;-60
2022/04/22 07:05:17;;;;;;;33.72;18.77;;;;;;;;;;4993161;28;20828;-60
2022/04/22 07:07:43;;;;;;;18.55;12.80;;;;;;;;;;4993090;28;20209;-59
2022/04/22 07:10:08;;;;;;;16.70;12.07;;;;;;;;;;4992634;28;20213;-60
2022/04/22 07:12:34;;;;;;;18.98;12.60;;;;;;;;;;4993228;28;20308;-60
2022/04/22 07:15:03;;;;;;;16.23;11.23;;;;;;;;;;4992524;28;20209;-60
2022/04/22 07:17:31;;;;;;;24.35;14.25;;;;;;;;;;4993177;28;20384;-60
2022/04/22 07:19:56;;;;;;;19.38;12.52;;;;;;;;;;4993392;28;20209;-60
2022/04/22 07:22:22;;;;;;;17.05;12.52;;;;;;;;;;4991874;28;20220;-60
2022/04/22 07:24:47;;;;;;;15.95;11.18;;;;;;;;;;4993438;28;20213;-59
2022/04/22 07:27:12;;;;;;;17.80;12.23;;;;;;;;;;4992435;28;20209;-60
2022/04/22 07:29:38;;;;;;;19.05;11.27;;;;;;;;;;4991107;28;20557;-59
2022/04/22 07:32:03;;;;;;;16.05;11.32;;;;;;;;;;4991501;28;20232;-59
2022/04/22 07:34:28;;;;;;;17.48;10.98;;;;;;;;;;4993248;28;20219;-59
2022/04/22 07:36:54;;;;;;;14.43;11.10;;;;;;;;;;4991961;28;20217;-59
2022/04/22 07:39:19;;;;;;;15.95;11.18;;;;;;;;;;4992651;28;20252;-59
2022/04/22 07:41:44;;;;;;;17.98;10.65;;;;;;;;;;4992965;28;20216;-59
2022/04/22 07:46:58;;;;;;;16.00;11.38;;;;;;;;;;4992011;28;20212;-59
2022/04/22 07:49:23;;;;;;;16.38;12.05;;;;;;;;;;4991247;28;20208;-59
2022/04/22 07:51:49;;;;;;;15.02;11.13;;;;;;;;;;4991921;28;20605;-60
2022/04/22 07:54:15;;;;;;;16.77;11.75;;;;;;;;;;4992337;28;20311;-59
2022/04/22 07:56:41;;;;;;;17.80;11.90;;;;;;;;;;4992601;28;20300;-59
2022/04/22 07:59:07;;;;;;;19.23;11.05;;;;;;;;;;4991553;28;20248;-60
2022/04/22 08:01:32;;;;;;;17.92;12.00;;;;;;;;;;4993988;28;20248;-59
2022/04/22 08:03:59;;;;;;;14.73;11.18;;;;;;;;;;4996102;28;20221;-60
2022/04/22 08:06:24;;;;;;;17.73;11.38;;;;;;;;;;4995461;28;20224;-59
2022/04/22 08:08:49;;;;;;;19.75;11.23;;;;;;;;;;4996773;28;20205;-59
2022/04/22 08:11:15;;;;;;;18.20;11.40;;;;;;;;;;4994976;28;20303;-59
2022/04/22 08:13:41;;;;;;;16.27;10.77;;;;;;;;;;4996446;28;20228;-59
2022/04/22 08:16:06;;;;;;;14.45;10.70;;;;;;;;;;4996308;28;20209;-59
2022/04/22 08:18:32;;;;;;;18.02;10.40;;;;;;;;;;4995967;28;20220;-58
2022/04/22 08:20:57;;;;;;;17.88;10.98;;;;;;;;;;4996577;28;20209;-60
2022/04/22 08:23:22;;;;;;;14.43;10.50;;;;;;;;;;4995919;28;20267;-60
2022/04/22 08:25:48;;;;;;;14.82;10.20;;;;;;;;;;4995837;28;20265;-60
2022/04/22 08:28:13;;;;;;;14.63;10.10;;;;;;;;;;4994870;28;20236;-59
2022/04/22 08:30:38;;;;;;;16.35;10.85;;;;;;;;;;4996071;28;20217;-60
2022/04/22 08:33:04;;;;;;;15.15;10.07;;;;;;;;;;4995080;28;20227;-60
2022/04/22 08:35:29;;;;;;;16.20;10.48;;;;;;;;;;4996608;28;20212;-60
2022/04/22 08:37:54;;;;;;;16.80;10.05;;;;;;;;;;4996255;28;20219;-60
2022/04/22 08:40:19;;;;;;;16.55;9.52;;;;;;;;;;4994015;28;20256;-60
2022/04/22 08:42:46;;;;;;;15.13;9.80;;;;;;;;;;4994023;28;20232;-60
2022/04/22 08:45:11;;;;;;;14.25;9.73;;;;;;;;;;4994153;28;20209;-59
2022/04/22 08:50:21;;;;;;;13.85;9.77;;;;;;;;;;4994728;28;20311;-60
2022/04/22 08:52:49;;;;;;;14.23;9.02;;;;;;;;;;4995937;28;20688;-60
2022/04/22 08:55:15;;;;;;;19.65;10.63;;;;;;;;;;4994636;28;20205;-60
2022/04/22 08:57:42;;;;;;;14.23;9.68;;;;;;;;;;4995760;28;20213;-60
2022/04/22 09:00:07;;;;;;;15.52;9.52;;;;;;;;;;4995527;28;20227;-60
2022/04/22 09:02:33;;;;;;;12.70;8.98;;;;;;;;;;4994042;28;20209;-60
2022/04/22 09:04:58;;;;;;;12.10;9.07;;;;;;;;;;4995674;28;20212;-60
2022/04/22 09:07:27;;;;;;;11.90;9.30;;;;;;;;;;4994909;28;20212;-61
2022/04/22 09:09:52;;;;;;;13.60;9.80;;;;;;;;;;4995774;28;20205;-60
2022/04/22 09:12:19;;;;;;;13.52;8.25;;;;;;;;;;4994486;28;20225;-61
2022/04/22 09:14:45;;;;;;;13.73;8.88;;;;;;;;;;4994375;28;20243;-62
2022/04/22 09:17:13;;;;;;;13.30;8.43;;;;;;;;;;4994803;28;20653;-62
2022/04/22 09:19:39;;;;;;;16.23;8.80;;;;;;;;;;4995797;28;20570;-62
2022/04/22 09:22:04;;;;;;;10.80;8.07;;;;;;;;;;4993535;28;20213;-61
2022/04/22 09:24:29;;;;;;;11.50;7.32;;;;;;;;;;4995454;28;20219;-62
2022/04/22 09:27:02;;;;;;;13.15;7.10;;;;;;;;;;4995394;28;20212;-60
2022/04/22 09:29:27;;;;;;;12.00;7.40;;;;;;;;;;4994267;28;20213;-60
2022/04/22 09:31:53;;;;;;;12.05;7.90;;;;;;;;;;4995219;28;20204;-60
2022/04/22 09:34:32;;;;;;;9.68;7.38;;;;;;;;;;4993367;28;20700;-60
2022/04/22 09:42:47;;;;;;;13.70;7.50;;;;;;;;;;4992167;28;20224;-60
2022/04/22 09:45:13;;;;;;;11.85;7.18;;;;;;;;;;4994274;28;20209;-59
2022/04/22 09:47:40;;;;;;;11.77;6.60;;;;;;;;;;4994817;28;20224;-59
2022/04/22 09:50:08;;;;;;;10.75;6.65;;;;;;;;;;4993950;28;20213;-59
2022/04/22 09:52:43;;;;;;;10.90;6.13;;;;;;;;;;4994910;28;20221;-59
2022/04/22 09:55:08;;;;;;;13.70;7.47;;;;;;;;;;4994450;28;20216;-59
2022/04/22 09:57:55;;;;;;;12.60;6.70;;;;;;;;;;4996080;28;20224;-59
2022/04/22 10:00:21;;;;;;;12.07;6.63;;;;;;;;;;4996126;28;20714;-59
2022/04/22 10:02:47;;;;;;;8.52;6.38;;;;;;;;;;4995547;28;20213;-59
2022/04/22 10:05:13;;;;;;;12.32;6.72;;;;;;;;;;4993493;28;20236;-59
2022/04/22 10:07:39;;;;;;;10.23;6.43;;;;;;;;;;4994763;28;20559;-59
2022/04/22 10:10:05;;;;;;;11.82;7.07;;;;;;;;;;4992829;28;20205;-60
2022/04/22 10:12:30;;;;;;;11.40;6.32;;;;;;;;;;4992331;28;20237;-59
2022/04/22 10:14:57;;;;;;;10.48;6.13;;;;;;;;;;4994636;28;20586;-59
2022/04/22 10:17:23;;;;;;;12.18;6.95;;;;;;;;;;4994040;28;20260;-59
2022/04/22 10:19:48;;;;;;;12.35;6.68;;;;;;;;;;4993877;28;20213;-59
2022/04/22 10:22:13;;;;;;;10.57;6.70;;;;;;;;;;4994034;28;20220;-59
2022/04/22 10:24:39;;;;;;;9.52;6.07;;;;;;;;;;4992297;28;20688;-59
2022/04/22 10:27:07;;;;;;;9.18;6.10;;;;;;;;;;4993096;28;20653;-60
2022/04/22 10:29:33;;;;;;;10.25;5.72;;;;;;;;;;4991009;28;20213;-59
2022/04/22 10:31:58;;;;;;;9.88;6.00;;;;;;;;;;4991961;28;20229;-58
2022/04/22 10:34:43;;;;;;;9.27;6.32;;;;;;;;;;4993378;28;20223;-58
2022/04/22 10:37:18;;;;;;;9.60;6.43;;;;;;;;;;4993761;28;20279;-58
2022/04/22 10:39:43;;;;;;;8.43;5.75;;;;;;;;;;4993357;28;20235;-58
2022/04/22 10:42:12;;;;;;;11.73;6.25;;;;;;;;;;4991882;28;20684;-58
2022/04/22 10:47:36;;;;;;;9.40;5.78;;;;;;;;;;4991795;28;20271;-58
2022/04/22 10:50:01;;;;;;;9.68;6.07;;;;;;;;;;4993463;28;20205;-58
2022/04/22 10:52:26;;;;;;;8.13;5.03;;;;;;;;;;4992432;28;20746;-58
2022/04/22 10:54:53;;;;;;;8.18;5.00;;;;;;;;;;4992892;28;20219;-58
2022/04/22 10:57:19;;;;;;;9.80;4.93;;;;;;;;;;4992475;28;20217;-58
2022/04/22 10:59:44;;;;;;;10.82;4.60;;;;;;;;;;4993499;28;20213;-58
2022/04/22 11:02:27;;;;;;;9.32;5.25;;;;;;;;;;4992440;28;20217;-58
2022/04/22 11:05:12;;;;;;;6.53;4.53;;;;;;;;;;4993755;28;20655;-58
2022/04/22 11:07:50;;;;;;;7.78;4.10;;;;;;;;;;4990106;28;20350;-58
2022/04/22 11:10:19;;;;;;;8.25;4.10;;;;;;;;;;4992813;28;20292;-58
2022/04/22 11:12:49;;;;;;;9.52;4.25;;;;;;;;;;4993457;28;20229;-60
2022/04/22 11:15:14;;;;;;;6.95;3.70;;;;;;;;;;4992226;28;20699;-60
2022/04/22 11:17:44;;;;;;;7.07;3.45;;;;;;;;;;4992344;28;20213;-59
2022/04/22 11:20:09;;;;;;;8.43;3.92;;;;;;;;;;4992875;28;20668;-60
2022/04/22 11:22:54;;;;;;;10.32;4.53;;;;;;;;;;4992569;28;20263;-60
2022/04/22 11:25:21;;;;;;;6.45;2.85;;;;;;;;;;4992623;28;20574;-60
2022/04/22 11:27:47;;;;;;;5.75;3.05;;;;;;;;;;4992867;28;20312;-60
2022/04/22 11:30:12;;;;;;;12.50;3.65;;;;;;;;;;4990036;28;20666;-59
2022/04/22 11:32:37;;;;;;;6.32;3.10;;;;;;;;;;4992635;28;20229;-60
2022/04/22 11:35:13;;;;;;;5.43;3.20;;;;;;;;;;4990532;28;20217;-60
2022/04/22 11:37:39;;;;;;;7.90;3.45;;;;;;;;;;4993231;28;20209;-60
2022/04/22 11:40:06;;;;;;;8.82;3.08;;;;;;;;;;4992500;28;20282;-61
2022/04/22 11:42:32;;;;;;;8.30;3.78;;;;;;;;;;4992302;28;20633;-60
2022/04/22 11:45:04;;;;;;;6.30;3.47;;;;;;;;;;4992874;28;20232;-60
2022/04/22 11:47:29;;;;;;;5.25;3.30;;;;;;;;;;4992515;28;20212;-60
2022/04/22 11:49:55;;;;;;;6.47;3.63;;;;;;;;;;4990512;28;20209;-60
2022/04/22 11:52:21;;;;;;;6.00;3.53;;;;;;;;;;4992155;28;20228;-60
2022/04/22 11:54:46;;;;;;;5.03;3.45;;;;;;;;;;4991160;28;20205;-60
2022/04/22 11:57:12;;;;;;;5.80;3.75;;;;;;;;;;4991766;28;20221;-60
2022/04/22 11:59:38;;;;;;;7.00;3.80;;;;;;;;;;4992752;28;20225;-60
2022/04/22 12:10:14;;;;;;;6.45;4.13;;;;;;;;;;4972054;28;20272;-60
2022/04/22 12:12:49;;;;;;;6.72;3.95;;;;;;;;;;4973233;28;20226;-60
2022/04/22 12:15:16;;;;;;;8.07;3.90;;;;;;;;;;4973107;28;20216;-60
2022/04/22 12:17:41;;;;;;;9.00;4.30;;;;;;;;;;4972864;28;20237;-60
2022/04/22 12:20:07;;;;;;;7.20;4.15;;;;;;;;;;4974505;28;20565;-60
2022/04/22 12:22:32;;;;;;;8.73;4.38;;;;;;;;;;4992308;28;20274;-60
2022/04/22 12:25:06;;;;;;;9.05;4.00;;;;;;;;;;4991362;28;20299;-60
2022/04/22 12:27:31;;;;;;;11.27;4.35;;;;;;;;;;4992426;28;20712;-60
2022/04/22 12:30:00;;;;;;;7.28;4.30;;;;;;;;;;4992271;28;20237;-60
2022/04/22 12:32:26;;;;;;;8.30;4.38;;;;;;;;;;4989311;28;20748;-60
2022/04/22 12:34:51;;;;;;;5.90;3.72;;;;;;;;;;4991942;28;20308;-60
2022/04/22 12:37:17;;;;;;;8.57;3.65;;;;;;;;;;4990767;28;20224;-60
2022/04/22 12:39:43;;;;;;;7.80;3.42;;;;;;;;;;4990501;28;20209;-59
2022/04/22 12:42:15;;;;;;;6.90;3.90;;;;;;;;;;4991548;28;20263;-60
2022/04/22 12:44:42;;;;;;;6.65;3.35;;;;;;;;;;4989394;28;20209;-58
2022/04/22 12:52:53;;;;;;;8.40;3.88;;;;;;;;;;4995378;28;20244;-59
2022/04/22 12:55:19;;;;;;;8.00;3.88;;;;;;;;;;4995051;28;20581;-59
2022/04/22 12:57:44;;;;;;;8.48;3.70;;;;;;;;;;4995798;28;20229;-59
2022/04/22 13:00:13;;;;;;;7.85;3.85;;;;;;;;;;4994495;28;20633;-59
2022/04/22 13:02:39;;;;;;;6.45;4.13;;;;;;;;;;4995970;28;20205;-59
2022/04/22 13:05:06;;;;;;;8.25;4.05;;;;;;;;;;4995578;28;20610;-59
2022/04/22 13:07:40;;;;;;;7.43;3.47;;;;;;;;;;4995364;28;20205;-59
2022/04/22 13:10:06;;;;;;;9.82;3.67;;;;;;;;;;4995124;28;20215;-60
2022/04/22 13:12:31;;;;;;;5.80;3.47;;;;;;;;;;4995766;28;20217;-59
2022/04/22 13:14:57;;;;;;;8.43;3.78;;;;;;;;;;4994580;28;20213;-59
2022/04/22 13:17:24;;;;;;;6.90;3.15;;;;;;;;;;4995275;28;20248;-59
2022/04/22 13:19:49;;;;;;;8.13;3.53;;;;;;;;;;4995773;28;20216;-59
2022/04/22 13:22:15;;;;;;;7.70;3.58;;;;;;;;;;4994629;28;20220;-59
2022/04/22 13:24:44;;;;;;;6.28;4.00;;;;;;;;;;4995426;28;20209;-59
2022/04/22 13:27:09;;;;;;;7.13;3.72;;;;;;;;;;4994488;28;20217;-59
2022/04/22 13:29:35;;;;;;;6.47;3.70;;;;;;;;;;4993648;28;20205;-59
2022/04/22 13:32:00;;;;;;;9.13;4.00;;;;;;;;;;4994844;28;20227;-59
2022/04/22 13:34:25;;;;;;;6.57;3.38;;;;;;;;;;4994797;28;20197;-59
2022/04/22 13:36:50;;;;;;;10.23;3.35;;;;;;;;;;4994510;28;20734;-59
2022/04/22 13:39:16;;;;;;;8.57;3.60;;;;;;;;;;4993902;28;20578;-59
2022/04/22 13:41:41;;;;;;;8.00;3.67;;;;;;;;;;4993816;28;20214;-59
2022/04/22 13:44:06;;;;;;;7.57;3.40;;;;;;;;;;4992546;28;20376;-59
2022/04/22 13:54:43;;;;;;;8.20;4.65;;;;;;;;;;4992378;28;20307;-59
2022/04/22 13:57:09;;;;;;;6.75;4.25;;;;;;;;;;4993126;28;20268;-59
2022/04/22 13:59:34;;;;;;;6.10;3.83;;;;;;;;;;4993159;28;20303;-59
2022/04/22 14:01:59;;;;;;;7.40;3.60;;;;;;;;;;4994632;28;20213;-59
2022/04/22 14:04:25;;;;;;;6.03;3.70;;;;;;;;;;4993652;28;20209;-59
2022/04/22 14:06:50;;;;;;;7.57;3.70;;;;;;;;;;4994888;28;20229;-60
2022/04/22 14:09:15;;;;;;;7.45;3.95;;;;;;;;;;4994326;28;20279;-60
2022/04/22 14:11:40;;;;;;;7.85;3.65;;;;;;;;;;4993866;28;20597;-60
2022/04/22 14:14:06;;;;;;;8.27;4.10;;;;;;;;;;4994143;28;20220;-60
2022/04/22 14:16:31;;;;;;;8.25;4.20;;;;;;;;;;4994266;28;20287;-60
2022/04/22 14:18:56;;;;;;;6.72;4.00;;;;;;;;;;4994489;28;20570;-60
2022/04/22 14:21:22;;;;;;;7.05;4.35;;;;;;;;;;4994127;28;20645;-60
2022/04/22 14:23:47;;;;;;;6.30;4.47;;;;;;;;;;4994049;28;20691;-59
2022/04/22 14:26:13;;;;;;;7.70;4.18;;;;;;;;;;4992403;28;20217;-60
2022/04/22 14:28:38;;;;;;;7.28;4.45;;;;;;;;;;4994427;28;20267;-60
2022/04/22 14:31:04;;;;;;;6.57;4.32;;;;;;;;;;4992836;28;20267;-60
2022/04/22 14:33:29;;;;;;;6.57;4.72;;;;;;;;;;4994188;28;20312;-60
2022/04/22 14:35:54;;;;;;;8.50;4.65;;;;;;;;;;4985508;28;20213;-60
2022/04/22 14:38:20;;;;;;;7.28;4.22;;;;;;;;;;4992755;28;20680;-60
2022/04/22 14:40:45;;;;;;;7.88;4.70;;;;;;;;;;4992820;28;20212;-59
2022/04/22 14:43:10;;;;;;;9.40;4.57;;;;;;;;;;4993632;28;20224;-59
2022/04/22 14:45:36;;;;;;;9.85;4.85;;;;;;;;;;4993287;28;20213;-59
2022/04/22 14:48:01;;;;;;;6.90;4.68;;;;;;;;;;4993331;28;20220;-60
2022/04/22 14:50:27;;;;;;;9.77;5.45;;;;;;;;;;4993845;28;20626;-59
2022/04/22 14:52:53;;;;;;;8.98;5.30;;;;;;;;;;4975641;28;20227;-60
2022/04/22 14:55:18;;;;;;;10.20;5.18;;;;;;;;;;4992876;28;20626;-60
2022/04/22 14:57:44;;;;;;;8.73;4.85;;;;;;;;;;4993707;28;20224;-61
2022/04/22 15:00:09;;;;;;;7.50;5.10;;;;;;;;;;4992505;28;20679;-59
2022/04/22 15:02:35;;;;;;;10.02;5.22;;;;;;;;;;4976419;28;20594;-60
2022/04/22 15:05:00;;;;;;;11.05;5.68;;;;;;;;;;4970291;28;20218;-62
2022/04/22 15:07:27;;;;;;;10.20;5.43;;;;;;;;;;4969107;28;20228;-59
2022/04/22 15:09:52;;;;;;;8.90;5.10;;;;;;;;;;4980634;28;20217;-60
2022/04/22 15:12:18;;;;;;;13.07;4.93;;;;;;;;;;4973406;28;20240;-60
2022/04/22 15:14:43;;;;;;;10.75;5.63;;;;;;;;;;4986506;28;20216;-60
2022/04/22 15:17:09;;;;;;;8.57;5.60;;;;;;;;;;4986415;28;20217;-60
2022/04/22 15:25:02;;;;;;;10.13;6.00;;;;;;;;;;4966076;28;20220;-60
2022/04/22 15:27:30;;;;;;;10.35;6.25;;;;;;;;;;4960606;28;20230;-60
2022/04/22 15:29:57;;;;;;;9.18;5.85;;;;;;;;;;4979283;28;20292;-60
2022/04/22 15:32:22;;;;;;;8.55;5.60;;;;;;;;;;4963911;28;20351;-59
2022/04/22 15:34:47;;;;;;;12.98;6.10;;;;;;;;;;4968141;28;20688;-61
2022/04/22 15:37:13;;;;;;;11.35;7.05;;;;;;;;;;4976163;28;20758;-61